Terminal Aerodrome Forecast
Issued by NWS Miami, FL

Home | Current Version | Previous Version | Text Only | Print | Product List | Glossary On
Versions: 1 2 3 4 5 6 7 8 9 10 11 12 13 14 15 16 17 18 19 20 21 22 23 24 25 26 27 28
000
FTUS42 KMFL 211318 AAA
TAFPBI
TAF AMD
KPBI 211318Z 2113/2212 12012KT P6SM VCSH SCT025 BKN030 OVC090
     FM211700 13015G21KT P6SM VCSH SCT020 BKN040 BKN120
     FM212100 12015KT P6SM SCT050 BKN080
     FM220300 11009KT P6SM OVC100=

USA.gov is the U.S. government's official web portal to all federal, state and local government web resources and services.